createdAt,value
2019-06-15T00:01:35.769Z,20.47
2019-06-15T00:04:05.508Z,20.63
2019-06-15T00:06:35.190Z,16.37
2019-06-15T00:09:06.391Z,17.90
2019-06-15T00:11:36.921Z,19.40
2019-06-15T00:14:06.676Z,17.93
2019-06-15T00:16:36.698Z,19.70
2019-06-15T00:19:06.375Z,22.10
2019-06-15T00:21:37.144Z,16.43
2019-06-15T00:24:06.869Z,19.43
2019-06-15T00:26:36.555Z,15.63
2019-06-15T00:29:06.231Z,22.53
2019-06-15T00:31:35.909Z,22.63
2019-06-15T00:34:05.575Z,19.77
2019-06-15T00:36:35.606Z,23.23
2019-06-15T00:39:07.155Z,19.80
2019-06-15T00:41:37.479Z,18.63
2019-06-15T00:44:07.216Z,19.37
2019-06-15T00:46:36.890Z,18.80
2019-06-15T00:49:06.556Z,18.23
2019-06-15T00:51:36.313Z,21.23
2019-06-15T00:54:06.332Z,18.30
2019-06-15T00:56:36.263Z,17.13
2019-06-15T00:59:06.064Z,18.43
2019-06-15T01:01:35.767Z,22.00
2019-06-15T01:04:05.607Z,18.03
2019-06-15T01:06:35.365Z,22.63
2019-06-15T01:09:07.396Z,20.53
2019-06-15T01:11:37.208Z,19.90
2019-06-15T01:14:07.195Z,19.17
2019-06-15T01:16:37.248Z,17.13
2019-06-15T01:19:07.207Z,23.70
2019-06-15T01:21:36.889Z,21.93
2019-06-15T01:24:06.707Z,20.70
2019-06-15T01:26:36.389Z,21.20
2019-06-15T01:29:06.158Z,20.33
2019-06-15T01:31:36.805Z,18.53
2019-06-15T01:34:06.492Z,20.00
2019-06-15T01:36:36.436Z,23.13
2019-06-15T01:39:07.199Z,21.73
2019-06-15T01:41:36.881Z,21.73
2019-06-15T01:44:06.620Z,21.27
2019-06-15T01:46:36.303Z,23.13
2019-06-15T01:49:05.981Z,20.67
2019-06-15T01:51:35.651Z,26.70
2019-06-15T01:54:05.430Z,20.93
2019-06-15T01:56:35.092Z,22.90
2019-06-15T01:59:04.985Z,22.40
2019-06-15T02:01:34.743Z,21.13
2019-06-15T02:04:04.707Z,25.07
2019-06-15T02:06:34.502Z,24.37
2019-06-15T02:09:06.972Z,20.07
2019-06-15T02:11:36.922Z,24.33
2019-06-15T02:14:06.785Z,20.93
2019-06-15T02:16:36.443Z,27.07
2019-06-15T02:19:06.142Z,27.80
2019-06-15T02:21:36.823Z,23.17
2019-06-15T02:24:06.798Z,22.37
2019-06-15T02:26:36.731Z,27.90
2019-06-15T02:29:06.653Z,24.70
2019-06-15T02:31:36.331Z,25.47
2019-06-15T02:34:06.096Z,25.40
2019-06-15T02:36:35.859Z,24.83
2019-06-15T02:39:07.057Z,25.43
2019-06-15T02:41:36.822Z,38.27
2019-06-15T02:44:06.634Z,23.50
2019-06-15T02:46:36.508Z,23.07
2019-06-15T02:49:06.246Z,30.40
2019-06-15T02:51:36.379Z,26.20
2019-06-15T02:54:06.390Z,25.03
2019-06-15T02:56:36.077Z,28.30
2019-06-15T02:59:05.947Z,22.40
2019-06-15T03:01:35.826Z,22.13
2019-06-15T03:04:05.579Z,24.40
2019-06-15T03:06:35.447Z,26.20
2019-06-15T03:09:06.532Z,28.03
2019-06-15T03:11:36.407Z,23.33
2019-06-15T03:14:06.294Z,20.73
2019-06-15T03:16:36.340Z,22.03
2019-06-15T03:19:06.029Z,27.03
2019-06-15T03:21:36.915Z,22.27
2019-06-15T03:24:06.671Z,21.70
2019-06-15T03:26:36.450Z,25.13
2019-06-15T03:29:06.158Z,24.07
2019-06-15T03:31:35.910Z,24.23
2019-06-15T03:34:05.692Z,25.20
2019-06-15T03:36:35.481Z,20.50
2019-06-15T03:39:07.050Z,23.60
2019-06-15T03:41:36.817Z,23.03
2019-06-15T03:44:06.511Z,19.03
2019-06-15T03:46:36.281Z,20.43
2019-06-15T03:49:06.049Z,27.93
2019-06-15T03:51:35.718Z,23.07
2019-06-15T03:54:05.486Z,20.60
2019-06-15T03:56:35.175Z,23.47
2019-06-15T03:59:05.056Z,26.47
2019-06-15T04:01:41.007Z,21.80
2019-06-15T04:04:10.701Z,24.50
2019-06-15T04:06:40.368Z,26.60
2019-06-15T04:09:10.216Z,21.03
2019-06-15T04:11:39.965Z,23.90
2019-06-15T04:14:09.830Z,18.67
2019-06-15T04:16:39.794Z,24.40
2019-06-15T04:19:09.599Z,21.37
2019-06-15T04:21:41.080Z,24.67
2019-06-15T04:24:11.166Z,28.13
2019-06-15T04:26:40.850Z,25.07
2019-06-15T04:29:10.612Z,21.60
2019-06-15T04:31:40.304Z,20.90
2019-06-15T04:34:10.006Z,22.33
2019-06-15T04:36:39.680Z,20.40
2019-06-15T04:39:09.630Z,19.73
2019-06-15T04:41:39.371Z,26.57
2019-06-15T04:44:09.070Z,17.87
2019-06-15T04:46:38.734Z,21.33
2019-06-15T04:49:08.423Z,17.97
2019-06-15T04:51:38.698Z,19.67
2019-06-15T04:54:08.384Z,16.83
2019-06-15T04:56:50.242Z,20.87
2019-06-15T04:59:09.574Z,24.17
2019-06-15T05:01:39.244Z,23.77
2019-06-15T05:04:09.001Z,21.57
2019-06-15T05:06:38.691Z,16.83
2019-06-15T05:09:08.405Z,18.77
2019-06-15T05:11:38.340Z,21.83
2019-06-15T05:14:08.164Z,20.70
2019-06-15T05:16:37.887Z,20.73
2019-06-15T05:19:07.849Z,22.03
2019-06-15T05:21:37.590Z,23.00
2019-06-15T05:24:08.723Z,20.67
2019-06-15T05:26:38.505Z,20.03
2019-06-15T05:29:08.252Z,21.77
2019-06-15T05:31:38.118Z,17.50
2019-06-15T05:34:07.825Z,16.83
2019-06-15T05:36:37.521Z,18.50
2019-06-15T05:39:07.774Z,20.83
2019-06-15T05:41:37.459Z,19.77
2019-06-15T05:44:07.229Z,21.17
2019-06-15T05:46:36.905Z,19.60
2019-06-15T05:49:06.579Z,21.17
2019-06-15T05:51:36.324Z,19.40
2019-06-15T05:54:06.436Z,18.53
2019-06-15T05:56:36.126Z,18.20
2019-06-15T05:59:05.802Z,17.50
2019-06-15T06:01:36.452Z,19.37
2019-06-15T06:04:06.319Z,23.63
2019-06-15T06:06:36.512Z,18.27
2019-06-15T06:09:07.226Z,22.80
2019-06-15T06:11:36.911Z,21.27
2019-06-15T06:14:06.729Z,20.73
2019-06-15T06:16:36.788Z,22.17
2019-06-15T06:19:06.458Z,20.03
2019-06-15T06:21:36.144Z,23.77
2019-06-15T06:24:05.971Z,17.53
2019-06-15T06:26:35.661Z,21.97
2019-06-15T06:29:05.775Z,18.33
2019-06-15T06:31:36.826Z,16.03
2019-06-15T06:34:07.559Z,19.10
2019-06-15T06:36:37.255Z,15.63
2019-06-15T06:39:09.121Z,14.53
2019-06-15T06:41:38.812Z,16.67
2019-06-15T06:44:08.484Z,18.07
2019-06-15T06:46:38.240Z,15.10
2019-06-15T06:49:07.913Z,16.47
2019-06-15T06:51:37.674Z,15.17
2019-06-15T06:54:07.420Z,17.17
2019-06-15T06:56:37.161Z,13.10
2019-06-15T06:59:07.155Z,16.87
2019-06-15T07:01:36.889Z,16.60
2019-06-15T07:04:06.683Z,15.60
2019-06-15T07:06:36.667Z,14.43
2019-06-15T07:09:07.065Z,14.53
2019-06-15T07:11:37.595Z,15.37
2019-06-15T07:14:10.456Z,19.83
2019-06-15T07:16:41.580Z,19.50
2019-06-15T07:19:13.409Z,15.63
2019-06-15T07:21:46.154Z,14.03
2019-06-15T07:24:16.301Z,14.27
2019-06-15T07:26:45.982Z,13.20
2019-06-15T07:29:16.384Z,16.97
2019-06-15T07:31:50.765Z,15.93
2019-06-15T07:34:22.614Z,17.77
2019-06-15T07:36:55.973Z,11.90
2019-06-15T07:39:29.166Z,17.53
2019-06-15T07:41:59.144Z,16.27
2019-06-15T07:44:29.218Z,16.53
2019-06-15T07:46:58.939Z,15.03
2019-06-15T07:49:28.614Z,13.80
2019-06-15T07:51:58.625Z,15.80
2019-06-15T07:54:28.468Z,12.97
2019-06-15T07:56:58.231Z,20.13
2019-06-15T07:59:27.906Z,24.70
2019-06-15T08:01:57.598Z,16.63
2019-06-15T08:04:27.273Z,13.63
2019-06-15T08:06:56.961Z,16.03
2019-06-15T08:09:26.645Z,16.03
2019-06-15T08:11:56.338Z,18.20
2019-06-15T08:14:26.010Z,14.60
2019-06-15T08:16:56.092Z,19.43
2019-06-15T08:19:25.780Z,18.60
2019-06-15T08:21:55.815Z,16.53
2019-06-15T08:24:25.657Z,20.27
2019-06-15T08:26:55.411Z,18.23
2019-06-15T08:29:25.053Z,16.27
2019-06-15T08:31:54.744Z,16.37
2019-06-15T08:34:24.411Z,19.37
2019-06-15T08:36:54.111Z,14.53
2019-06-15T08:39:23.807Z,19.87
2019-06-15T08:41:56.777Z,15.57
2019-06-15T08:44:24.852Z,19.57
2019-06-15T08:46:54.587Z,12.97
2019-06-15T08:49:24.273Z,15.77
2019-06-15T08:51:54.023Z,18.37
2019-06-15T08:54:23.693Z,15.57
2019-06-15T08:56:53.365Z,16.33
2019-06-15T08:59:23.044Z,19.07
2019-06-15T09:01:52.719Z,18.73
2019-06-15T09:04:22.414Z,14.20
2019-06-15T09:06:52.083Z,15.50
2019-06-15T09:09:21.777Z,22.83
2019-06-15T09:11:51.504Z,17.27
2019-06-15T09:14:21.208Z,14.30
2019-06-15T09:16:50.872Z,15.73
2019-06-15T09:19:20.562Z,14.23
2019-06-15T09:21:51.291Z,14.90
2019-06-15T09:24:21.052Z,14.90
2019-06-15T09:26:51.861Z,17.33
2019-06-15T09:29:21.553Z,14.50
2019-06-15T09:31:51.238Z,14.03
2019-06-15T09:34:20.971Z,16.37
2019-06-15T09:36:50.676Z,12.77
2019-06-15T09:39:20.364Z,15.03
2019-06-15T09:41:50.028Z,14.77
2019-06-15T09:44:19.727Z,21.37
2019-06-15T09:46:49.432Z,13.27
2019-06-15T09:49:19.414Z,18.00
2019-06-15T09:51:49.603Z,19.30
2019-06-15T09:54:19.288Z,16.80
2019-06-15T09:56:49.035Z,13.77
2019-06-15T09:59:25.885Z,17.60
2019-06-15T10:01:50.148Z,19.13
2019-06-15T10:04:19.847Z,14.90
2019-06-15T10:06:49.519Z,16.70
2019-06-15T10:09:19.275Z,17.00
2019-06-15T10:11:49.438Z,18.40
2019-06-15T10:14:19.160Z,15.73
2019-06-15T10:16:48.894Z,17.57
2019-06-15T10:19:18.528Z,15.47
2019-06-15T10:21:48.209Z,17.97
2019-06-15T10:24:18.647Z,17.13
2019-06-15T10:26:48.337Z,20.37
2019-06-15T10:29:18.080Z,18.97
2019-06-15T10:31:48.085Z,21.30
2019-06-15T10:34:17.877Z,20.73
2019-06-15T10:36:47.573Z,15.13
2019-06-15T10:39:17.592Z,16.93
2019-06-15T10:41:47.298Z,10.83
2019-06-15T10:44:16.998Z,15.77
2019-06-15T10:46:46.827Z,17.13
2019-06-15T10:49:16.662Z,13.90
2019-06-15T10:51:46.488Z,17.10
2019-06-15T10:54:16.186Z,15.83
2019-06-15T10:56:45.876Z,20.47
2019-06-15T10:59:19.339Z,17.83
2019-06-15T11:01:49.336Z,17.17
2019-06-15T11:04:20.495Z,14.93
2019-06-15T11:06:50.191Z,18.13
2019-06-15T11:09:20.237Z,11.67
2019-06-15T11:11:50.291Z,14.53
2019-06-15T11:14:21.015Z,17.03
2019-06-15T11:16:50.849Z,16.50
2019-06-15T11:19:20.521Z,11.77
2019-06-15T11:21:50.530Z,11.40
2019-06-15T11:24:20.994Z,15.60
2019-06-15T11:26:50.776Z,13.70
2019-06-15T11:29:20.395Z,11.70
2019-06-15T11:31:50.107Z,14.80
2019-06-15T11:34:19.842Z,11.43
2019-06-15T11:36:49.531Z,15.27
2019-06-15T11:39:19.215Z,9.93
2019-06-15T11:41:49.270Z,12.87
2019-06-15T11:44:19.006Z,13.27
2019-06-15T11:46:48.648Z,13.77
2019-06-15T11:49:18.484Z,17.27
2019-06-15T11:51:48.565Z,11.63
2019-06-15T11:54:18.340Z,13.70
2019-06-15T11:56:48.965Z,14.30
2019-06-15T11:59:18.639Z,13.10
2019-06-15T12:01:48.328Z,9.33
2019-06-15T12:04:18.016Z,12.27
2019-06-15T12:06:47.790Z,11.17
2019-06-15T12:09:17.477Z,9.93
2019-06-15T12:11:47.175Z,13.17
2019-06-15T12:14:16.845Z,11.87
2019-06-15T12:16:46.595Z,10.97
2019-06-15T12:19:16.334Z,11.83
2019-06-15T12:21:46.019Z,14.80
2019-06-15T12:24:15.702Z,14.33
2019-06-15T12:26:45.369Z,14.53
2019-06-15T12:29:15.067Z,11.77
2019-06-15T12:31:44.750Z,15.50
2019-06-15T12:34:14.420Z,16.40
2019-06-15T12:36:44.534Z,18.10
2019-06-15T12:39:14.499Z,15.63
2019-06-15T12:41:44.751Z,23.80
2019-06-15T12:44:14.432Z,13.77
2019-06-15T12:46:44.562Z,21.67
2019-06-15T12:49:14.238Z,19.53
2019-06-15T12:51:44.251Z,13.10
2019-06-15T12:54:13.922Z,15.73
2019-06-15T12:56:43.651Z,9.47
2019-06-15T12:59:13.319Z,13.57
2019-06-15T13:01:43.006Z,11.67
2019-06-15T13:04:12.718Z,14.23
2019-06-15T13:06:42.717Z,14.83
2019-06-15T13:09:12.403Z,12.60
2019-06-15T13:11:42.169Z,9.50
2019-06-15T13:14:11.861Z,8.27
2019-06-15T13:16:41.535Z,8.20
2019-06-15T13:19:11.230Z,8.90
2019-06-15T13:21:40.992Z,10.20
2019-06-15T13:24:10.686Z,11.17
2019-06-15T13:26:40.365Z,9.53
2019-06-15T13:29:10.388Z,9.30
2019-06-15T13:31:40.079Z,11.97
2019-06-15T13:34:09.958Z,10.37
2019-06-15T13:36:39.705Z,10.37
2019-06-15T13:39:09.535Z,10.37
2019-06-15T13:41:39.398Z,10.47
2019-06-15T13:44:09.398Z,10.50
2019-06-15T13:46:39.073Z,8.53
2019-06-15T13:49:09.105Z,5.13
2019-06-15T13:51:38.896Z,6.37
2019-06-15T13:54:08.585Z,7.47
2019-06-15T13:56:38.351Z,12.67
2019-06-15T13:59:08.090Z,13.17
2019-06-15T14:01:37.867Z,14.53
2019-06-15T14:04:07.627Z,10.00
2019-06-15T14:06:37.974Z,12.37
2019-06-15T14:09:08.371Z,6.67
2019-06-15T14:11:38.313Z,8.63
2019-06-15T14:14:08.011Z,8.50
2019-06-15T14:16:37.698Z,9.10
2019-06-15T14:19:07.643Z,9.37
2019-06-15T14:21:37.422Z,9.40
2019-06-15T14:24:07.217Z,5.40
2019-06-15T14:26:36.885Z,5.53
2019-06-15T14:29:07.531Z,6.00
2019-06-15T14:31:49.669Z,4.60
2019-06-15T14:34:08.587Z,6.97
2019-06-15T14:36:39.182Z,7.30
2019-06-15T14:39:09.018Z,4.03
2019-06-15T14:41:38.696Z,6.03
2019-06-15T14:44:08.560Z,6.03
2019-06-15T14:46:38.238Z,6.63
2019-06-15T14:49:07.993Z,5.23
2019-06-15T14:51:37.665Z,7.10
2019-06-15T14:54:07.402Z,6.37
2019-06-15T14:56:37.153Z,5.00
2019-06-15T14:59:06.830Z,7.60
2019-06-15T15:01:36.569Z,8.63
2019-06-15T15:04:06.411Z,5.97
2019-06-15T15:06:36.789Z,8.13
2019-06-15T15:09:07.854Z,6.13
2019-06-15T15:11:37.705Z,9.27
2019-06-15T15:14:07.389Z,7.90
2019-06-15T15:16:37.061Z,7.70
2019-06-15T15:19:06.905Z,4.47
2019-06-15T15:21:37.124Z,7.80
2019-06-15T15:24:06.950Z,8.97
2019-06-15T15:26:37.180Z,17.70
2019-06-15T15:29:07.942Z,5.43
2019-06-15T15:31:37.924Z,8.10
2019-06-15T15:34:08.044Z,6.83
2019-06-15T15:36:37.850Z,3.53
2019-06-15T15:39:10.236Z,9.80
2019-06-15T15:41:39.247Z,6.97
2019-06-15T15:44:08.921Z,6.33
2019-06-15T15:46:38.666Z,8.60
2019-06-15T15:49:08.373Z,11.43
2019-06-15T15:51:38.035Z,8.10
2019-06-15T15:54:07.795Z,8.07
2019-06-15T15:56:37.456Z,9.87
2019-06-15T15:59:07.142Z,8.63
2019-06-15T16:01:37.160Z,5.90
2019-06-15T16:04:06.847Z,6.40
2019-06-15T16:06:36.511Z,5.53
2019-06-15T16:09:06.607Z,8.57
2019-06-15T16:11:37.224Z,5.87
2019-06-15T16:14:07.332Z,6.87
2019-06-15T16:16:38.366Z,5.67
2019-06-15T16:19:08.037Z,9.03
2019-06-15T16:21:37.720Z,8.57
2019-06-15T16:24:07.649Z,6.30
2019-06-15T16:26:37.703Z,3.67
2019-06-15T16:29:07.449Z,4.27
2019-06-15T16:31:37.625Z,5.70
2019-06-15T16:34:07.344Z,3.97
2019-06-15T16:36:38.161Z,4.33
2019-06-15T16:39:08.549Z,8.13
2019-06-15T16:41:38.977Z,4.00
2019-06-15T16:44:10.029Z,4.70
2019-06-15T16:46:40.351Z,3.50
2019-06-15T16:49:10.027Z,6.83
2019-06-15T16:51:39.873Z,9.40
2019-06-15T16:54:09.915Z,6.97
2019-06-15T16:56:42.435Z,8.73
2019-06-15T16:59:12.269Z,7.50
2019-06-15T17:01:42.435Z,3.93
2019-06-15T17:04:12.208Z,3.03
2019-06-15T17:06:41.990Z,5.10
2019-06-15T17:09:12.534Z,5.53
2019-06-15T17:11:42.278Z,3.80
2019-06-15T17:14:11.957Z,4.20
2019-06-15T17:16:41.682Z,6.93
2019-06-15T17:19:11.502Z,4.53
2019-06-15T17:21:41.484Z,4.20
2019-06-15T17:24:11.421Z,4.10
2019-06-15T17:26:41.085Z,1.80
2019-06-15T17:29:11.776Z,5.17
2019-06-15T17:31:41.890Z,4.20
2019-06-15T17:34:11.611Z,4.53
2019-06-15T17:36:41.489Z,6.47
2019-06-15T17:39:11.183Z,1.93
2019-06-15T17:41:40.910Z,7.90
2019-06-15T17:44:10.663Z,3.13
2019-06-15T17:46:40.354Z,2.60
2019-06-15T17:49:10.110Z,3.90
2019-06-15T17:51:40.047Z,3.20
2019-06-15T17:54:09.704Z,1.87
2019-06-15T17:56:39.667Z,3.63
2019-06-15T17:59:09.412Z,3.53
2019-06-15T18:01:39.079Z,5.47
2019-06-15T18:04:09.117Z,3.53
2019-06-15T18:06:39.129Z,4.10
2019-06-15T18:09:10.900Z,3.70
2019-06-15T18:11:42.256Z,2.90
2019-06-15T18:14:11.965Z,2.07
2019-06-15T18:16:42.721Z,5.63
2019-06-15T18:19:12.554Z,5.20
2019-06-15T18:21:42.595Z,2.00
2019-06-15T18:24:12.616Z,4.03
2019-06-15T18:26:42.278Z,5.73
2019-06-15T18:29:11.966Z,5.03
2019-06-15T18:31:41.664Z,5.03
2019-06-15T18:34:13.370Z,2.63
2019-06-15T18:36:42.741Z,2.53
2019-06-15T18:39:12.425Z,2.33
2019-06-15T18:41:42.436Z,1.73
2019-06-15T18:44:12.220Z,2.97
2019-06-15T18:46:42.555Z,2.23
2019-06-15T18:49:12.563Z,2.10
2019-06-15T18:51:42.239Z,4.90
2019-06-15T18:54:11.909Z,3.20
2019-06-15T18:56:41.825Z,3.93
2019-06-15T18:59:11.818Z,1.90
2019-06-15T19:01:41.819Z,4.20
2019-06-15T19:04:24.544Z,4.37
2019-06-15T19:06:43.209Z,4.70
2019-06-15T19:09:12.894Z,4.87
2019-06-15T19:11:42.566Z,2.50
2019-06-15T19:14:12.397Z,3.87
2019-06-15T19:16:42.185Z,8.70
2019-06-15T19:19:16.920Z,2.30
2019-06-15T19:21:46.177Z,7.33
2019-06-15T19:24:18.125Z,2.37
2019-06-15T19:26:48.157Z,5.53
2019-06-15T19:29:17.897Z,5.93
2019-06-15T19:31:47.887Z,3.93
2019-06-15T19:34:17.994Z,2.13
2019-06-15T19:36:47.997Z,5.37
2019-06-15T19:39:17.699Z,3.73
2019-06-15T19:41:48.022Z,2.90
2019-06-15T19:44:17.824Z,2.93
2019-06-15T19:46:48.161Z,2.40
2019-06-15T19:49:18.195Z,2.93
2019-06-15T19:51:48.193Z,3.10
2019-06-15T19:54:17.953Z,3.60
2019-06-15T19:56:47.642Z,2.60
2019-06-15T19:59:17.325Z,4.30
2019-06-15T20:01:47.072Z,1.93
2019-06-15T20:04:17.071Z,2.00
2019-06-15T20:06:46.801Z,1.87
2019-06-15T20:09:16.572Z,2.77
2019-06-15T20:11:46.874Z,4.30
2019-06-15T20:14:16.839Z,1.60
2019-06-15T20:16:47.105Z,3.20
2019-06-15T20:19:17.619Z,2.77
2019-06-15T20:21:47.683Z,2.57
2019-06-15T20:24:19.211Z,4.87
2019-06-15T20:26:48.987Z,1.53
2019-06-15T20:29:18.641Z,1.70
2019-06-15T20:31:48.314Z,1.87
2019-06-15T20:34:19.494Z,1.30
2019-06-15T20:36:49.508Z,8.90
2019-06-15T20:39:19.525Z,1.10
2019-06-15T20:41:49.677Z,3.30
2019-06-15T20:44:19.398Z,2.63
2019-06-15T20:46:49.178Z,3.23
2019-06-15T20:49:19.183Z,1.83
2019-06-15T20:51:48.862Z,2.27
2019-06-15T20:54:18.912Z,2.30
2019-06-15T20:56:48.580Z,1.90
2019-06-15T20:59:18.584Z,2.50
2019-06-15T21:01:48.262Z,2.23
2019-06-15T21:04:18.084Z,1.63
2019-06-15T21:06:48.198Z,4.90
2019-06-15T21:09:18.862Z,1.90
2019-06-15T21:11:51.445Z,1.60
2019-06-15T21:14:21.115Z,1.33
2019-06-15T21:16:50.879Z,2.17
2019-06-15T21:19:20.716Z,1.70
2019-06-15T21:21:50.935Z,4.13
2019-06-15T21:24:20.682Z,2.33
2019-06-15T21:26:50.412Z,2.83
2019-06-15T21:29:20.088Z,3.17
2019-06-15T21:31:50.083Z,7.80
2019-06-15T21:34:19.777Z,3.97
2019-06-15T21:36:49.871Z,3.80
2019-06-15T21:39:20.861Z,3.70
2019-06-15T21:41:52.290Z,3.80
2019-06-15T21:44:22.532Z,10.73
2019-06-15T21:46:52.533Z,4.67
2019-06-15T21:49:22.455Z,4.10
2019-06-15T21:51:52.465Z,4.97
2019-06-15T21:54:27.786Z,5.70
2019-06-15T21:57:07.032Z,7.10
2019-06-15T21:59:39.692Z,5.07
2019-06-15T22:02:11.120Z,7.87
2019-06-15T22:04:41.019Z,6.20
2019-06-15T22:07:11.514Z,5.73
2019-06-15T22:09:46.750Z,5.77
2019-06-15T22:12:18.062Z,5.77
2019-06-15T22:14:56.821Z,7.30
2019-06-15T22:17:26.277Z,6.83
2019-06-15T22:19:56.913Z,4.23
2019-06-15T22:22:27.271Z,4.57
2019-06-15T22:24:58.023Z,10.87
2019-06-15T22:27:31.024Z,5.17
2019-06-15T22:30:00.679Z,7.23
2019-06-15T22:32:30.364Z,7.73
2019-06-15T22:35:00.152Z,5.17
2019-06-15T22:37:29.808Z,6.90
2019-06-15T22:39:59.477Z,5.30
2019-06-15T22:42:29.143Z,8.97
2019-06-15T22:44:58.832Z,6.13
2019-06-15T22:47:28.565Z,4.70
2019-06-15T22:49:58.247Z,4.77
2019-06-15T22:52:27.899Z,4.40
2019-06-15T22:54:57.591Z,6.13
2019-06-15T22:57:27.295Z,4.80
2019-06-15T22:59:56.966Z,3.73
2019-06-15T23:02:26.729Z,5.30
2019-06-15T23:04:56.661Z,4.60
2019-06-15T23:07:26.355Z,5.27
2019-06-15T23:09:56.403Z,4.43
2019-06-15T23:12:26.048Z,5.23
2019-06-15T23:14:56.015Z,6.77
2019-06-15T23:17:27.334Z,7.10
2019-06-15T23:19:57.223Z,4.33
2019-06-15T23:22:28.200Z,6.07
2019-06-15T23:24:57.875Z,5.13
2019-06-15T23:27:28.629Z,4.37
2019-06-15T23:29:58.577Z,5.10
2019-06-15T23:32:28.532Z,4.53
2019-06-15T23:34:58.204Z,4.63
2019-06-15T23:37:27.863Z,4.47
2019-06-15T23:40:22.397Z,8.60
2019-06-15T23:42:53.725Z,4.10
2019-06-15T23:45:26.583Z,5.37
2019-06-15T23:47:57.470Z,4.87
2019-06-15T23:50:26.846Z,7.10
2019-06-15T23:52:56.519Z,4.43
2019-06-15T23:55:26.896Z,4.30
2019-06-15T23:57:57.063Z,5.67
